createdAt,value
2023-01-25T00:00:31.437Z,36.10
2023-01-25T00:03:18.177Z,43.07
2023-01-25T00:05:45.484Z,49.33
2023-01-25T00:08:12.286Z,46.43
2023-01-25T00:10:39.345Z,41.27
2023-01-25T00:13:06.154Z,43.40
2023-01-25T00:15:33.145Z,45.47
2023-01-25T00:17:59.895Z,42.03
2023-01-25T00:20:26.905Z,46.07
2023-01-25T00:22:53.699Z,42.53
2023-01-25T00:25:20.638Z,41.90
2023-01-25T00:27:47.452Z,48.33
2023-01-25T00:30:17.130Z,49.63
2023-01-25T00:33:18.047Z,45.20
2023-01-25T00:35:45.164Z,48.00
2023-01-25T00:38:29.902Z,46.77
2023-01-25T00:40:58.431Z,44.03
2023-01-25T00:43:25.660Z,45.33
2023-01-25T00:45:52.710Z,45.87
2023-01-25T00:48:19.603Z,45.37
2023-01-25T00:50:46.659Z,41.07
2023-01-25T00:53:13.457Z,38.70
2023-01-25T00:55:40.574Z,36.47
2023-01-25T00:58:07.331Z,36.47
2023-01-25T01:00:34.537Z,32.90
2023-01-25T01:03:01.258Z,34.00
2023-01-25T01:05:29.476Z,31.43
2023-01-25T01:07:56.462Z,33.33
2023-01-25T01:10:23.589Z,36.50
2023-01-25T01:12:51.446Z,31.97
2023-01-25T01:15:18.458Z,36.20
2023-01-25T01:17:45.431Z,34.27
2023-01-25T01:20:13.046Z,36.63
2023-01-25T01:22:39.777Z,36.33
2023-01-25T01:25:07.867Z,37.63
2023-01-25T01:27:34.763Z,32.10
2023-01-25T01:30:01.966Z,34.70
2023-01-25T01:32:28.979Z,33.83
2023-01-25T01:34:56.188Z,30.33
2023-01-25T01:37:23.349Z,34.67
2023-01-25T01:39:52.064Z,31.03
2023-01-25T01:42:18.839Z,33.50
2023-01-25T01:44:49.366Z,31.00
2023-01-25T01:47:41.937Z,31.10
2023-01-25T01:50:20.236Z,29.97
2023-01-25T01:52:47.368Z,34.03
2023-01-25T01:55:18.272Z,32.87
2023-01-25T01:57:50.138Z,30.30
2023-01-25T02:00:25.613Z,28.97
2023-01-25T02:02:54.394Z,30.33
2023-01-25T02:05:54.155Z,29.93
2023-01-25T02:08:22.100Z,28.93
2023-01-25T02:10:50.278Z,28.10
2023-01-25T02:13:19.270Z,34.33
2023-01-25T02:15:48.350Z,28.43
2023-01-25T02:18:16.182Z,28.83
2023-01-25T02:20:52.865Z,30.47
2023-01-25T02:23:30.824Z,29.97
2023-01-25T02:26:01.453Z,25.10
2023-01-25T02:28:39.284Z,28.97
2023-01-25T02:31:07.008Z,23.80
2023-01-25T02:33:33.901Z,24.63
2023-01-25T02:36:07.038Z,23.67
2023-01-25T02:38:37.262Z,24.00
2023-01-25T02:41:30.142Z,26.87
2023-01-25T02:43:57.683Z,27.07
2023-01-25T02:46:34.550Z,24.33
2023-01-25T02:49:03.561Z,25.57
2023-01-25T02:51:33.116Z,24.20
2023-01-25T02:54:01.169Z,23.33
2023-01-25T02:56:28.534Z,22.27
2023-01-25T02:58:55.417Z,23.40
2023-01-25T03:01:22.748Z,20.20
2023-01-25T03:03:50.759Z,23.17
2023-01-25T03:06:19.181Z,26.77
2023-01-25T03:08:46.171Z,25.87
2023-01-25T03:11:14.458Z,21.53
2023-01-25T03:13:42.666Z,24.07
2023-01-25T03:16:12.589Z,23.97
2023-01-25T03:18:42.508Z,25.60
2023-01-25T03:21:18.788Z,25.10
2023-01-25T03:23:47.550Z,22.00
2023-01-25T03:26:22.357Z,23.13
2023-01-25T03:29:18.482Z,21.83
2023-01-25T03:31:48.333Z,25.87
2023-01-25T03:34:15.507Z,23.17
2023-01-25T03:36:43.539Z,27.60
2023-01-25T03:39:10.410Z,24.83
2023-01-25T03:41:43.766Z,22.13
2023-01-25T03:44:13.277Z,20.40
2023-01-25T03:46:42.442Z,24.17
2023-01-25T03:49:09.619Z,21.03
2023-01-25T03:51:36.785Z,19.17
2023-01-25T03:54:04.621Z,21.27
2023-01-25T03:56:34.818Z,21.13
2023-01-25T03:59:08.118Z,21.17
2023-01-25T04:01:35.790Z,18.40
2023-01-25T04:04:03.492Z,24.77
2023-01-25T04:06:30.560Z,23.87
2023-01-25T04:08:57.680Z,26.70
2023-01-25T04:11:26.715Z,23.20
2023-01-25T04:13:54.234Z,24.73
2023-01-25T04:16:23.724Z,22.83
2023-01-25T04:19:03.319Z,23.97
2023-01-25T04:21:31.773Z,21.27
2023-01-25T04:23:58.771Z,22.13
2023-01-25T04:26:26.061Z,18.20
2023-01-25T04:28:57.794Z,18.90
2023-01-25T04:31:25.275Z,18.90
2023-01-25T04:33:52.720Z,18.93
2023-01-25T04:36:20.708Z,24.90
2023-01-25T04:38:48.236Z,29.37
2023-01-25T04:41:15.576Z,20.73
2023-01-25T04:43:44.287Z,22.43
2023-01-25T04:46:11.447Z,26.23
2023-01-25T04:48:39.275Z,26.23
2023-01-25T04:51:09.466Z,27.27
2023-01-25T04:53:36.510Z,24.70
2023-01-25T04:56:06.496Z,27.17
2023-01-25T04:58:41.496Z,23.67
2023-01-25T05:01:08.828Z,34.00
2023-01-25T05:03:35.755Z,31.37
2023-01-25T05:06:04.985Z,23.37
2023-01-25T05:08:31.782Z,23.23
2023-01-25T05:11:02.165Z,19.50
2023-01-25T05:13:58.038Z,25.17
2023-01-25T05:16:30.009Z,19.90
2023-01-25T05:18:58.043Z,21.23
2023-01-25T05:21:59.503Z,20.00
2023-01-25T05:24:41.672Z,19.53
2023-01-25T05:27:13.036Z,23.57
2023-01-25T05:29:56.465Z,23.00
2023-01-25T05:32:31.609Z,32.40
2023-01-25T05:35:00.675Z,26.57
2023-01-25T05:37:28.260Z,27.07
2023-01-25T05:40:02.556Z,27.53
2023-01-25T05:42:36.085Z,16.40
2023-01-25T05:45:04.726Z,17.77
2023-01-25T05:47:33.885Z,17.17
2023-01-25T05:50:01.133Z,15.60
2023-01-25T05:52:41.101Z,17.77
2023-01-25T05:55:08.503Z,16.97
2023-01-25T05:57:35.890Z,18.80
2023-01-25T06:00:04.057Z,17.57
2023-01-25T06:02:40.414Z,18.63
2023-01-25T06:05:10.340Z,19.87
2023-01-25T06:07:37.672Z,19.17
2023-01-25T06:10:05.275Z,20.03
2023-01-25T06:12:33.157Z,23.27
2023-01-25T06:14:59.880Z,22.17
2023-01-25T06:17:27.102Z,19.20
2023-01-25T06:20:16.757Z,20.93
2023-01-25T06:22:56.307Z,22.87
2023-01-25T06:25:23.056Z,23.67
2023-01-25T06:27:50.172Z,28.40
2023-01-25T06:30:17.195Z,25.80
2023-01-25T06:32:44.225Z,26.10
2023-01-25T06:35:11.183Z,31.47
2023-01-25T06:37:38.336Z,33.50
2023-01-25T06:40:05.645Z,26.77
2023-01-25T06:42:32.755Z,26.77
2023-01-25T06:44:59.479Z,20.53
2023-01-25T06:47:26.500Z,22.20
2023-01-25T06:49:53.358Z,23.03
2023-01-25T06:52:20.436Z,23.57
2023-01-25T06:54:47.205Z,18.13
2023-01-25T06:57:14.286Z,18.30
2023-01-25T06:59:41.079Z,17.77
2023-01-25T07:02:14.715Z,17.60
2023-01-25T07:04:42.196Z,18.10
2023-01-25T07:07:09.515Z,19.53
2023-01-25T07:09:36.506Z,17.87
2023-01-25T07:12:06.556Z,16.97
2023-01-25T07:14:33.861Z,19.37
2023-01-25T07:17:02.960Z,17.97
2023-01-25T07:19:30.737Z,18.00
2023-01-25T07:21:57.768Z,19.47
2023-01-25T07:24:27.258Z,21.60
2023-01-25T07:26:54.380Z,20.70
2023-01-25T07:29:22.049Z,23.43
2023-01-25T07:31:49.172Z,22.40
2023-01-25T07:34:16.090Z,28.00
2023-01-25T07:36:47.123Z,23.50
2023-01-25T07:39:14.211Z,25.40
2023-01-25T07:41:41.212Z,21.93
2023-01-25T07:44:12.989Z,20.37
2023-01-25T07:46:49.708Z,22.73
2023-01-25T07:49:16.735Z,22.47
2023-01-25T07:51:44.251Z,27.87
2023-01-25T07:54:12.312Z,26.70
2023-01-25T07:56:40.610Z,25.97
2023-01-25T07:59:08.388Z,23.70
2023-01-25T08:01:36.920Z,27.70
2023-01-25T08:04:04.914Z,24.10
2023-01-25T08:06:39.188Z,25.97
2023-01-25T08:09:13.490Z,29.27
2023-01-25T08:11:42.217Z,25.17
2023-01-25T08:14:09.862Z,22.73
2023-01-25T08:16:36.984Z,22.80
2023-01-25T08:19:04.848Z,23.20
2023-01-25T08:21:34.326Z,24.43
2023-01-25T08:24:04.166Z,33.83
2023-01-25T08:26:31.521Z,29.37
2023-01-25T08:28:58.427Z,23.00
2023-01-25T08:31:28.517Z,21.87
2023-01-25T08:33:56.085Z,23.40
2023-01-25T08:36:24.328Z,21.20
2023-01-25T08:38:56.676Z,19.97
2023-01-25T08:41:26.627Z,22.80
2023-01-25T08:43:55.191Z,21.27
2023-01-25T08:46:23.673Z,21.80
2023-01-25T08:48:57.686Z,23.40
2023-01-25T08:51:25.470Z,23.73
2023-01-25T08:53:52.619Z,23.60
2023-01-25T08:56:20.315Z,23.43
2023-01-25T08:58:48.581Z,19.47
2023-01-25T09:01:18.164Z,20.73
2023-01-25T09:03:47.521Z,23.23
2023-01-25T09:06:15.137Z,21.67
2023-01-25T09:08:42.850Z,19.57
2023-01-25T09:11:12.559Z,19.73
2023-01-25T09:13:43.444Z,22.20
2023-01-25T09:16:13.686Z,21.90
2023-01-25T09:18:42.114Z,20.63
2023-01-25T09:21:11.288Z,22.10
2023-01-25T09:23:50.595Z,23.60
2023-01-25T09:26:25.729Z,24.63
2023-01-25T09:28:54.433Z,23.93
2023-01-25T09:31:24.041Z,22.17
2023-01-25T09:34:11.231Z,22.93
2023-01-25T09:36:38.357Z,21.47
2023-01-25T09:39:05.553Z,22.50
2023-01-25T09:42:14.993Z,21.27
2023-01-25T09:45:21.727Z,20.33
2023-01-25T09:48:10.844Z,22.50
2023-01-25T09:50:53.173Z,19.03
2023-01-25T09:53:25.441Z,17.77
2023-01-25T09:55:55.587Z,20.83
2023-01-25T09:58:30.785Z,20.83
2023-01-25T10:01:15.674Z,19.60
2023-01-25T10:04:02.126Z,20.10
2023-01-25T10:06:37.597Z,19.47
2023-01-25T10:09:13.642Z,22.27
2023-01-25T10:11:40.856Z,18.93
2023-01-25T10:14:19.423Z,21.60
2023-01-25T10:16:46.161Z,19.03
2023-01-25T10:19:34.940Z,18.60
2023-01-25T10:22:10.718Z,21.07
2023-01-25T10:25:13.842Z,21.77
2023-01-25T10:28:02.039Z,22.27
2023-01-25T10:30:50.488Z,24.77
2023-01-25T10:33:19.777Z,26.63
2023-01-25T10:35:49.675Z,25.73
2023-01-25T10:38:32.648Z,24.47
2023-01-25T10:41:30.544Z,26.43
2023-01-25T10:44:20.525Z,25.07
2023-01-25T10:47:04.066Z,25.10
2023-01-25T10:49:51.235Z,27.97
2023-01-25T10:52:27.505Z,22.40
2023-01-25T10:55:18.431Z,27.03
2023-01-25T10:57:49.759Z,27.90
2023-01-25T11:00:30.153Z,25.60
2023-01-25T11:02:58.283Z,29.53
2023-01-25T11:05:28.168Z,27.50
2023-01-25T11:07:56.416Z,29.67
2023-01-25T11:10:37.736Z,38.37
2023-01-25T11:13:17.352Z,38.17
2023-01-25T11:15:50.768Z,40.53
2023-01-25T11:18:33.913Z,35.93
2023-01-25T11:21:11.424Z,32.83
2023-01-25T11:23:38.642Z,28.90
2023-01-25T11:26:14.954Z,29.63
2023-01-25T11:28:42.615Z,30.20
2023-01-25T11:31:12.825Z,31.30
2023-01-25T11:33:41.930Z,32.90
2023-01-25T11:36:24.008Z,30.97
2023-01-25T11:39:22.086Z,40.90
2023-01-25T11:42:13.863Z,36.97
2023-01-25T11:44:59.024Z,34.83
2023-01-25T11:47:40.045Z,32.93
2023-01-25T11:50:19.012Z,35.33
2023-01-25T11:52:58.880Z,35.53
2023-01-25T11:55:35.238Z,35.97
2023-01-25T11:58:04.791Z,36.83
2023-01-25T12:00:45.424Z,34.37
2023-01-25T12:03:27.455Z,35.03
2023-01-25T12:06:27.068Z,39.33
2023-01-25T12:09:06.857Z,37.43
2023-01-25T12:12:04.820Z,42.03
2023-01-25T12:14:31.572Z,37.07
2023-01-25T12:17:15.190Z,36.63
2023-01-25T12:19:52.977Z,38.57
2023-01-25T12:22:35.205Z,37.67
2023-01-25T12:25:13.826Z,40.07
2023-01-25T12:28:13.841Z,40.23
2023-01-25T12:30:50.033Z,42.27
2023-01-25T12:33:30.995Z,39.63
2023-01-25T12:36:06.671Z,41.50
2023-01-25T12:38:40.266Z,38.73
2023-01-25T12:41:28.514Z,41.57
2023-01-25T12:44:05.973Z,36.40
2023-01-25T12:46:40.518Z,37.13
2023-01-25T12:49:21.902Z,39.30
2023-01-25T12:51:49.675Z,41.70
2023-01-25T12:54:32.517Z,38.97
2023-01-25T12:57:04.398Z,40.63
2023-01-25T12:59:46.081Z,36.70
2023-01-25T13:02:24.631Z,37.57
2023-01-25T13:05:14.757Z,38.57
2023-01-25T13:07:58.907Z,43.23
2023-01-25T13:10:43.091Z,42.13
2023-01-25T13:13:25.409Z,41.57
2023-01-25T13:15:53.842Z,43.40
2023-01-25T13:18:30.090Z,41.80
2023-01-25T13:21:08.166Z,49.53
2023-01-25T13:23:50.657Z,44.10
2023-01-25T13:26:29.763Z,46.77
2023-01-25T13:28:59.613Z,43.83
2023-01-25T13:31:51.984Z,54.63
2023-01-25T13:34:34.939Z,48.93
2023-01-25T13:37:25.677Z,40.50
2023-01-25T13:39:54.395Z,42.43
2023-01-25T13:42:27.311Z,43.87
2023-01-25T13:45:02.003Z,44.93
2023-01-25T13:47:30.445Z,43.60
2023-01-25T13:50:21.602Z,42.60
2023-01-25T13:53:17.612Z,44.07
2023-01-25T13:55:56.704Z,47.20
2023-01-25T13:58:36.271Z,42.83
2023-01-25T14:01:07.094Z,38.93
2023-01-25T14:03:40.631Z,42.00
2023-01-25T14:06:14.585Z,38.33
2023-01-25T14:08:44.026Z,36.60
2023-01-25T14:11:11.088Z,40.47
2023-01-25T14:13:38.246Z,36.67
2023-01-25T14:16:09.198Z,33.30
2023-01-25T14:18:39.645Z,37.03
2023-01-25T14:21:22.548Z,42.50
2023-01-25T14:23:49.889Z,42.50
2023-01-25T14:26:25.339Z,40.87
2023-01-25T14:29:01.952Z,37.27
2023-01-25T14:31:36.138Z,41.70
2023-01-25T14:34:04.972Z,40.17
2023-01-25T14:36:34.669Z,43.53
2023-01-25T14:39:04.483Z,43.40
2023-01-25T14:41:37.217Z,40.00
2023-01-25T14:44:10.617Z,41.80
2023-01-25T14:46:38.880Z,39.33
2023-01-25T14:49:11.911Z,36.97
2023-01-25T14:52:14.113Z,39.93
2023-01-25T14:54:51.814Z,42.80
2023-01-25T14:57:37.360Z,41.73
2023-01-25T15:00:24.372Z,47.50
2023-01-25T15:02:55.478Z,44.77
2023-01-25T15:05:24.653Z,42.63
2023-01-25T15:08:15.656Z,45.17
2023-01-25T15:11:19.605Z,49.83
2023-01-25T15:13:46.823Z,44.10
2023-01-25T15:16:16.404Z,46.33
2023-01-25T15:18:51.784Z,44.37
2023-01-25T15:21:27.359Z,42.23
2023-01-25T15:23:56.151Z,40.43
2023-01-25T15:26:29.904Z,42.93
2023-01-25T15:29:21.105Z,44.77
2023-01-25T15:31:50.845Z,46.67
2023-01-25T15:34:21.142Z,44.70
2023-01-25T15:36:48.308Z,44.27
2023-01-25T15:39:18.013Z,43.50
2023-01-25T15:41:46.424Z,44.93
2023-01-25T15:44:13.798Z,46.37
2023-01-25T15:46:45.477Z,47.23
2023-01-25T15:49:24.919Z,50.03
2023-01-25T15:51:52.435Z,47.97
2023-01-25T15:54:19.301Z,47.00
2023-01-25T15:56:55.461Z,47.80
2023-01-25T15:59:22.447Z,49.57
2023-01-25T16:01:49.592Z,48.90
2023-01-25T16:04:16.508Z,43.30
2023-01-25T16:06:50.184Z,45.97
2023-01-25T16:09:22.955Z,43.97
2023-01-25T16:11:58.159Z,45.50
2023-01-25T16:14:29.089Z,43.50
2023-01-25T16:17:05.510Z,46.33
2023-01-25T16:19:33.547Z,44.07
2023-01-25T16:22:00.645Z,44.73
2023-01-25T16:24:27.497Z,48.30
2023-01-25T16:26:57.176Z,45.73
2023-01-25T16:29:24.465Z,52.83
2023-01-25T16:31:53.161Z,47.87
2023-01-25T16:34:21.092Z,52.53
2023-01-25T16:36:51.842Z,49.90
2023-01-25T16:39:21.690Z,45.97
2023-01-25T16:41:49.237Z,51.13
2023-01-25T16:44:16.999Z,50.87
2023-01-25T16:46:44.604Z,51.13
2023-01-25T16:49:17.009Z,49.53
2023-01-25T16:51:45.442Z,48.63
2023-01-25T16:54:12.455Z,46.87
2023-01-25T16:56:39.763Z,44.17
2023-01-25T16:59:06.954Z,49.63
2023-01-25T17:01:34.023Z,46.37
2023-01-25T17:04:00.895Z,51.43
2023-01-25T17:06:34.182Z,49.90
2023-01-25T17:09:12.622Z,45.80
2023-01-25T17:11:47.974Z,50.23
2023-01-25T17:14:18.755Z,46.93
2023-01-25T17:16:48.356Z,48.20
2023-01-25T17:19:16.891Z,48.07
2023-01-25T17:21:45.370Z,52.07
2023-01-25T17:24:15.217Z,56.00
2023-01-25T17:26:43.104Z,58.90
2023-01-25T17:29:10.452Z,57.53
2023-01-25T17:31:38.269Z,59.73
2023-01-25T17:34:07.286Z,61.30
2023-01-25T17:36:35.000Z,57.00
2023-01-25T17:39:04.956Z,60.83
2023-01-25T17:41:32.595Z,56.07
2023-01-25T17:43:59.477Z,61.27
2023-01-25T17:46:30.030Z,57.77
2023-01-25T17:48:57.789Z,53.90
2023-01-25T17:51:26.262Z,58.40
2023-01-25T17:53:53.685Z,56.37
2023-01-25T17:56:20.798Z,58.93
2023-01-25T17:58:47.922Z,54.73
2023-01-25T18:01:20.711Z,58.03
2023-01-25T18:03:49.550Z,56.60
2023-01-25T18:06:21.860Z,55.57
2023-01-25T18:08:50.757Z,53.73
2023-01-25T18:11:25.998Z,56.77
2023-01-25T18:13:59.486Z,57.27
2023-01-25T18:16:28.312Z,59.43
2023-01-25T18:18:59.596Z,58.63
2023-01-25T18:21:31.645Z,59.70
2023-01-25T18:24:27.168Z,57.80
2023-01-25T18:27:00.275Z,58.33
2023-01-25T18:29:46.373Z,61.10
2023-01-25T18:32:14.911Z,57.33
2023-01-25T18:34:42.102Z,55.73
2023-01-25T18:37:17.895Z,62.90
2023-01-25T18:39:46.205Z,58.43
2023-01-25T18:42:13.276Z,60.93
2023-01-25T18:44:40.068Z,61.70
2023-01-25T18:47:10.193Z,54.07
2023-01-25T18:49:37.082Z,59.67
2023-01-25T18:52:11.310Z,63.57
2023-01-25T18:54:39.215Z,57.13
2023-01-25T18:57:06.907Z,61.30
2023-01-25T18:59:33.787Z,61.50
2023-01-25T19:02:00.933Z,64.03
2023-01-25T19:04:27.873Z,59.33
2023-01-25T19:06:57.515Z,58.77
2023-01-25T19:09:25.529Z,57.20
2023-01-25T19:11:52.545Z,57.73
2023-01-25T19:14:19.305Z,62.17
2023-01-25T19:16:46.622Z,56.13
2023-01-25T19:19:13.771Z,60.63
2023-01-25T19:21:40.949Z,62.10
2023-01-25T19:24:13.346Z,61.67
2023-01-25T19:26:41.316Z,61.07
2023-01-25T19:29:08.321Z,61.77
2023-01-25T19:31:37.302Z,63.13
2023-01-25T19:34:06.444Z,60.07
2023-01-25T19:36:36.137Z,65.10
2023-01-25T19:39:05.501Z,67.43
2023-01-25T19:41:33.894Z,63.73
2023-01-25T19:44:02.688Z,62.63
2023-01-25T19:46:32.384Z,62.07
2023-01-25T19:49:00.680Z,60.77
2023-01-25T19:51:30.333Z,61.03
2023-01-25T19:54:03.376Z,65.87
2023-01-25T19:56:36.595Z,66.33
2023-01-25T19:59:05.751Z,57.40
2023-01-25T20:01:33.035Z,61.93
2023-01-25T20:04:00.600Z,65.43
2023-01-25T20:06:27.807Z,65.63
2023-01-25T20:08:54.687Z,60.67
2023-01-25T20:11:24.449Z,70.50
2023-01-25T20:13:52.999Z,61.13
2023-01-25T20:16:20.707Z,56.67
2023-01-25T20:18:48.930Z,59.57
2023-01-25T20:21:19.463Z,67.90
2023-01-25T20:23:49.121Z,64.60
2023-01-25T20:26:19.970Z,64.23
2023-01-25T20:28:51.569Z,64.57
2023-01-25T20:31:29.594Z,58.73
2023-01-25T20:33:58.413Z,70.37
2023-01-25T20:36:28.203Z,60.77
2023-01-25T20:38:55.230Z,69.17
2023-01-25T20:41:22.576Z,69.63
2023-01-25T20:44:00.152Z,69.70
2023-01-25T20:46:29.423Z,71.17
2023-01-25T20:48:56.345Z,70.30
2023-01-25T20:51:24.053Z,70.47
2023-01-25T20:53:51.861Z,72.33
2023-01-25T20:56:19.660Z,75.27
2023-01-25T20:58:50.661Z,69.30
2023-01-25T21:01:20.204Z,73.47
2023-01-25T21:03:47.724Z,76.60
2023-01-25T21:06:15.602Z,70.37
2023-01-25T21:08:43.191Z,74.70
2023-01-25T21:11:11.571Z,74.13
2023-01-25T21:13:38.408Z,77.63
2023-01-25T21:16:07.371Z,76.67
2023-01-25T21:18:39.800Z,74.97
2023-01-25T21:21:10.973Z,76.83
2023-01-25T21:23:40.065Z,74.07
2023-01-25T21:26:08.478Z,73.40
2023-01-25T21:28:35.400Z,71.70
2023-01-25T21:31:10.606Z,77.23
2023-01-25T21:33:37.954Z,74.77
2023-01-25T21:36:08.566Z,74.87
2023-01-25T21:38:36.018Z,69.37
2023-01-25T21:41:05.156Z,75.47
2023-01-25T21:43:55.270Z,73.40
2023-01-25T21:46:27.293Z,73.97
2023-01-25T21:49:14.464Z,70.27
2023-01-25T21:51:49.485Z,69.33
2023-01-25T21:54:22.697Z,70.23
2023-01-25T21:56:53.134Z,73.87
2023-01-25T21:59:20.371Z,70.10
2023-01-25T22:01:48.273Z,68.73
2023-01-25T22:04:16.590Z,68.53
2023-01-25T22:06:44.436Z,71.40
2023-01-25T22:09:13.258Z,67.10
2023-01-25T22:11:40.686Z,71.10
2023-01-25T22:14:07.770Z,72.20
2023-01-25T22:16:34.956Z,72.13
2023-01-25T22:19:02.523Z,73.30
2023-01-25T22:21:32.178Z,82.50
2023-01-25T22:24:01.015Z,74.33
2023-01-25T22:27:05.949Z,75.10
2023-01-25T22:29:34.242Z,66.23
2023-01-25T22:32:02.251Z,65.93
2023-01-25T22:34:29.167Z,67.23
2023-01-25T22:36:56.232Z,67.53
2023-01-25T22:39:22.967Z,70.73
2023-01-25T22:41:50.075Z,67.53
2023-01-25T22:44:16.876Z,74.83
2023-01-25T22:46:43.872Z,67.70
2023-01-25T22:49:10.665Z,72.63
2023-01-25T22:51:37.708Z,68.53
2023-01-25T22:54:05.177Z,70.53
2023-01-25T22:56:33.392Z,70.50
2023-01-25T22:59:01.200Z,78.03
2023-01-25T23:01:31.121Z,74.73
2023-01-25T23:03:58.390Z,79.83
2023-01-25T23:06:28.000Z,83.13
2023-01-25T23:08:56.527Z,86.80
2023-01-25T23:11:24.815Z,75.90
2023-01-25T23:14:13.066Z,78.93
2023-01-25T23:16:40.088Z,82.03
2023-01-25T23:19:06.928Z,75.93
2023-01-25T23:21:35.762Z,80.30
2023-01-25T23:24:04.071Z,74.97
2023-01-25T23:26:37.496Z,80.60
2023-01-25T23:29:12.679Z,84.20
2023-01-25T23:31:39.977Z,74.17
2023-01-25T23:34:07.234Z,82.10
2023-01-25T23:36:38.831Z,77.43
2023-01-25T23:39:06.198Z,77.30
2023-01-25T23:41:33.906Z,74.80
2023-01-25T23:44:00.912Z,79.20
2023-01-25T23:46:28.511Z,76.93
2023-01-25T23:48:55.602Z,86.10
2023-01-25T23:51:23.662Z,80.37
2023-01-25T23:53:50.672Z,81.97
2023-01-25T23:56:20.625Z,81.27
2023-01-25T23:58:48.095Z,75.93
